sensor_id;sensor_type;location;lat;lon;timestamp;pressure;altitude;pressure_sealevel;temperature;humidity
76070;BME280;64768;51.738;5.852;2023-03-14T14:08:46;100278.44;;;11.11;63.72
76070;BME280;64768;51.738;5.852;2023-03-14T14:13:59;100304.00;;;10.98;62.72
76070;BME280;64768;51.738;5.852;2023-03-14T14:46:23;100385.59;;;10.31;62.04
76070;BME280;64768;51.738;5.852;2023-03-14T15:45:24;100520.09;;;9.03;68.27
76070;BME280;64768;51.738;5.852;2023-03-14T15:48:03;100554.22;;;9.04;67.97
76070;BME280;64768;51.738;5.852;2023-03-14T15:50:40;100547.38;;;8.82;67.95
76070;BME280;64768;51.738;5.852;2023-03-14T15:53:37;100563.66;;;8.78;67.77
76070;BME280;64768;51.738;5.852;2023-03-14T16:01:28;100575.44;;;8.50;68.59
76070;BME280;64768;51.738;5.852;2023-03-14T16:04:09;100574.28;;;8.40;69.57
76070;BME280;64768;51.738;5.852;2023-03-14T16:06:53;100575.84;;;8.31;69.79
76070;BME280;64768;51.738;5.852;2023-03-14T16:09:36;100609.19;;;8.35;70.81
76070;BME280;64768;51.738;5.852;2023-03-14T16:12:14;100594.47;;;8.11;69.99
76070;BME280;64768;51.738;5.852;2023-03-14T16:14:59;100608.44;;;8.06;70.17
76070;BME280;64768;51.738;5.852;2023-03-14T16:17:36;100626.66;;;8.05;70.74
76070;BME280;64768;51.738;5.852;2023-03-14T16:20:09;100618.13;;;7.89;70.32
76070;BME280;64768;51.738;5.852;2023-03-14T16:22:42;100613.88;;;7.81;71.32
76070;BME280;64768;51.738;5.852;2023-03-14T16:25:29;100619.69;;;7.69;71.58
76070;BME280;64768;51.738;5.852;2023-03-14T16:28:13;100627.81;;;7.62;72.47
76070;BME280;64768;51.738;5.852;2023-03-14T16:30:46;100661.50;;;7.68;72.13
76070;BME280;64768;51.738;5.852;2023-03-14T16:33:33;100640.16;;;7.45;72.43
76070;BME280;64768;51.738;5.852;2023-03-14T16:36:07;100662.22;;;7.43;73.16
76070;BME280;64768;51.738;5.852;2023-03-14T16:38:42;100670.34;;;7.36;72.48
76070;BME280;64768;51.738;5.852;2023-03-14T16:41:16;100666.44;;;7.27;73.36
76070;BME280;64768;51.738;5.852;2023-03-14T16:44:00;100691.25;;;7.32;73.61
76070;BME280;64768;51.738;5.852;2023-03-14T16:46:32;100687.72;;;7.17;74.28
76070;BME280;64768;51.738;5.852;2023-03-14T16:49:07;100708.59;;;7.20;74.30
76070;BME280;64768;51.738;5.852;2023-03-14T16:51:36;100703.50;;;7.05;73.93
76070;BME280;64768;51.738;5.852;2023-03-14T16:54:06;100701.19;;;7.00;74.48
76070;BME280;64768;51.738;5.852;2023-03-14T16:56:36;100723.63;;;7.00;74.11
76070;BME280;64768;51.738;5.852;2023-03-14T16:59:05;100727.03;;;6.93;74.97
76070;BME280;64768;51.738;5.852;2023-03-14T17:01:35;100701.41;;;6.73;74.51
76070;BME280;64768;51.738;5.852;2023-03-14T17:04:22;100737.00;;;6.79;75.30
76070;BME280;64768;51.738;5.852;2023-03-14T17:06:54;100718.34;;;6.59;75.58
76070;BME280;64768;51.738;5.852;2023-03-14T17:09:27;100715.63;;;6.56;76.30
76070;BME280;64768;51.738;5.852;2023-03-14T17:12:06;100719.47;;;6.55;76.95
76070;BME280;64768;51.738;5.852;2023-03-14T17:14:38;100746.25;;;6.67;77.79
76070;BME280;64768;51.738;5.852;2023-03-14T17:17:15;100741.91;;;6.55;78.20
76070;BME280;64768;51.738;5.852;2023-03-14T17:19:52;100756.59;;;6.58;78.42
76070;BME280;64768;51.738;5.852;2023-03-14T17:24:59;100778.16;;;6.47;79.29
76070;BME280;64768;51.738;5.852;2023-03-14T17:27:32;100761.00;;;6.29;79.57
76070;BME280;64768;51.738;5.852;2023-03-14T17:30:03;100771.06;;;6.32;79.75
76070;BME280;64768;51.738;5.852;2023-03-14T17:32:35;100763.69;;;6.25;80.38
76070;BME280;64768;51.738;5.852;2023-03-14T17:35:17;100775.25;;;6.22;80.90
76070;BME280;64768;51.738;5.852;2023-03-14T17:37:49;100787.97;;;6.18;80.96
76070;BME280;64768;51.738;5.852;2023-03-14T17:40:30;100792.53;;;6.14;80.71
76070;BME280;64768;51.738;5.852;2023-03-14T17:43:01;100825.03;;;6.18;80.98
76070;BME280;64768;51.738;5.852;2023-03-14T17:45:31;100798.97;;;5.99;80.89
76070;BME280;64768;51.738;5.852;2023-03-14T17:48:00;100812.53;;;6.03;81.54
76070;BME280;64768;51.738;5.852;2023-03-14T17:50:36;100828.38;;;6.04;82.17
76070;BME280;64768;51.738;5.852;2023-03-14T17:53:07;100824.03;;;5.96;82.43
76070;BME280;64768;51.738;5.852;2023-03-14T17:55:38;100827.84;;;5.91;82.53
76070;BME280;64768;51.738;5.852;2023-03-14T17:58:16;100839.31;;;5.85;82.65
76070;BME280;64768;51.738;5.852;2023-03-14T18:00:45;100857.16;;;5.89;82.95
76070;BME280;64768;51.738;5.852;2023-03-14T18:03:40;100850.06;;;5.78;83.09
76070;BME280;64768;51.738;5.852;2023-03-14T18:06:17;100858.22;;;5.85;83.44
76070;BME280;64768;51.738;5.852;2023-03-14T18:08:47;100867.09;;;5.82;83.26
76070;BME280;64768;51.738;5.852;2023-03-14T18:11:19;100840.63;;;5.64;83.50
76070;BME280;64768;51.738;5.852;2023-03-14T18:13:50;100847.13;;;5.60;83.52
76070;BME280;64768;51.738;5.852;2023-03-14T18:16:21;100871.91;;;5.65;84.21
76070;BME280;64768;51.738;5.852;2023-03-14T18:18:53;100866.00;;;5.56;84.54
76070;BME280;64768;51.738;5.852;2023-03-14T18:21:30;100857.75;;;5.46;84.24
76070;BME280;64768;51.738;5.852;2023-03-14T18:24:06;100868.56;;;5.46;84.43
76070;BME280;64768;51.738;5.852;2023-03-14T18:26:36;100895.31;;;5.54;84.16
76070;BME280;64768;51.738;5.852;2023-03-14T18:29:07;100899.09;;;5.50;84.69
76070;BME280;64768;51.738;5.852;2023-03-14T18:31:51;100901.34;;;5.44;84.78
76070;BME280;64768;51.738;5.852;2023-03-14T18:34:31;100902.38;;;5.36;84.77
76070;BME280;64768;51.738;5.852;2023-03-14T18:37:26;100905.38;;;5.31;85.37
76070;BME280;64768;51.738;5.852;2023-03-14T18:39:59;100911.09;;;5.26;85.71
76070;BME280;64768;51.738;5.852;2023-03-14T18:42:57;100912.53;;;5.20;86.00
76070;BME280;64768;51.738;5.852;2023-03-14T18:46:00;100918.25;;;5.15;85.66
76070;BME280;64768;51.738;5.852;2023-03-14T18:48:55;100945.72;;;5.20;86.13
76070;BME280;64768;51.738;5.852;2023-03-14T19:04:29;100972.69;;;4.94;86.95
76070;BME280;64768;51.738;5.852;2023-03-14T19:07:18;100962.78;;;4.78;86.99
76070;BME280;64768;51.738;5.852;2023-03-14T19:10:10;100978.66;;;4.83;86.83
